createdAt,value
2018-10-05T00:02:31.497Z,99588.34
2018-10-05T00:05:36.519Z,99591.92
2018-10-05T00:08:42.331Z,99587.23
2018-10-05T00:11:48.394Z,99582.45
2018-10-05T00:14:54.266Z,99581.24
2018-10-05T00:17:59.265Z,99584.48
2018-10-05T00:21:04.289Z,99586.17
2018-10-05T00:24:10.048Z,99589.87
2018-10-05T00:27:15.029Z,99589.39
2018-10-05T00:30:20.057Z,99597.94
2018-10-05T00:33:25.905Z,99586.33
2018-10-05T00:36:30.897Z,99589.28
2018-10-05T00:39:35.944Z,99584.50
2018-10-05T00:42:40.938Z,99587.59
2018-10-05T00:45:45.933Z,99582.13
2018-10-05T00:48:50.921Z,99583.20
2018-10-05T00:51:55.941Z,99585.52
2018-10-05T00:55:00.947Z,99586.16
2018-10-05T00:58:05.994Z,99582.53
2018-10-05T01:01:11.025Z,99578.40
2018-10-05T01:04:16.030Z,99580.08
2018-10-05T01:07:21.027Z,99575.18
2018-10-05T01:10:26.025Z,99572.81
2018-10-05T01:13:31.002Z,99569.10
2018-10-05T01:16:36.001Z,99576.91
2018-10-05T01:19:41.509Z,99565.92
2018-10-05T01:22:46.533Z,99567.19
2018-10-05T01:25:51.563Z,99564.96
2018-10-05T01:28:56.535Z,99555.84
2018-10-05T01:32:01.542Z,99547.69
2018-10-05T01:35:06.579Z,99546.06
2018-10-05T01:38:12.430Z,99547.89
2018-10-05T01:41:18.445Z,99540.25
2018-10-05T01:44:23.424Z,99545.92
2018-10-05T01:47:28.413Z,99541.61
2018-10-05T01:50:33.436Z,99530.38
2018-10-05T01:53:38.433Z,99527.25
2018-10-05T01:56:43.415Z,99528.33
2018-10-05T01:59:48.418Z,99523.81
2018-10-05T02:02:53.405Z,99516.20
2018-10-05T02:05:59.597Z,99506.27
2018-10-05T02:09:05.016Z,99505.78
2018-10-05T02:12:09.980Z,99505.66
2018-10-05T02:15:15.774Z,99504.19
2018-10-05T02:18:20.800Z,99504.91
2018-10-05T02:21:26.561Z,99502.91
2018-10-05T02:24:32.710Z,99494.32
2018-10-05T02:27:37.742Z,99483.63
2018-10-05T02:30:43.846Z,99480.92
2018-10-05T02:33:48.798Z,99479.89
2018-10-05T02:36:53.765Z,99479.16
2018-10-05T02:39:58.737Z,99478.95
2018-10-05T02:43:03.742Z,99473.92
2018-10-05T02:46:08.785Z,99477.05
2018-10-05T02:49:13.761Z,99470.89
2018-10-05T02:52:18.738Z,99472.85
2018-10-05T02:55:23.729Z,99470.69
2018-10-05T02:58:29.466Z,99471.78
2018-10-05T03:01:46.139Z,99463.48
2018-10-05T03:04:51.846Z,99453.73
2018-10-05T03:07:56.850Z,99451.38
2018-10-05T03:11:01.818Z,99441.61
2018-10-05T03:14:06.826Z,99452.86
2018-10-05T03:17:12.478Z,99446.38
2018-10-05T03:20:18.069Z,99441.91
2018-10-05T03:23:23.121Z,99437.25
2018-10-05T03:26:29.452Z,99440.50
2018-10-05T03:29:37.378Z,99440.30
2018-10-05T03:32:42.431Z,99435.92
2018-10-05T03:35:48.591Z,99436.68
2018-10-05T03:38:53.613Z,99432.31
2018-10-05T03:41:58.807Z,99435.33
2018-10-05T03:45:05.319Z,99438.94
2018-10-05T03:48:10.325Z,99431.17
2018-10-05T03:51:15.347Z,99428.47
2018-10-05T03:54:20.325Z,99437.37
2018-10-05T03:57:25.313Z,99441.36
2018-10-05T04:00:30.368Z,99435.20
2018-10-05T04:03:35.375Z,99433.22
2018-10-05T04:06:41.049Z,99435.20
2018-10-05T04:09:46.811Z,99443.03
2018-10-05T04:12:51.803Z,99436.33
2018-10-05T04:15:57.517Z,99439.66
2018-10-05T04:19:02.502Z,99432.62
2018-10-05T04:22:07.491Z,99433.77
2018-10-05T04:25:12.468Z,99427.98
2018-10-05T04:28:17.450Z,99425.95
2018-10-05T04:31:29.588Z,99422.52
2018-10-05T04:34:34.568Z,99414.75
2018-10-05T04:37:39.482Z,99407.77
2018-10-05T04:40:44.450Z,99413.23
2018-10-05T04:43:49.410Z,99413.05
2018-10-05T04:46:54.372Z,99411.27
2018-10-05T04:49:59.347Z,99403.64
2018-10-05T04:53:04.323Z,99416.02
2018-10-05T04:56:09.289Z,99411.33
2018-10-05T04:59:14.239Z,99407.39
2018-10-05T05:02:19.190Z,99406.13
2018-10-05T05:05:24.161Z,99405.44
2018-10-05T05:08:29.126Z,99407.09
2018-10-05T05:14:53.365Z,99416.67
2018-10-05T05:17:58.309Z,99419.03
2018-10-05T05:21:03.266Z,99420.31
2018-10-05T05:24:08.221Z,99415.40
2018-10-05T05:27:13.203Z,99414.64
2018-10-05T05:30:18.202Z,99407.91
2018-10-05T05:33:23.940Z,99405.52
2018-10-05T05:36:28.962Z,99419.15
2018-10-05T05:39:35.364Z,99418.78
2018-10-05T05:42:41.566Z,99424.23
2018-10-05T05:45:47.674Z,99419.15
2018-10-05T05:48:54.312Z,99410.97
2018-10-05T05:51:59.302Z,99410.46
2018-10-05T05:55:05.257Z,99412.44
2018-10-05T05:58:11.585Z,99407.84
2018-10-05T06:01:17.446Z,99412.17
2018-10-05T06:04:23.402Z,99412.05
2018-10-05T06:07:28.414Z,99412.24
2018-10-05T06:10:34.624Z,99409.12
2018-10-05T06:13:40.245Z,99415.80
2018-10-05T06:16:46.424Z,99410.84
2018-10-05T06:19:53.301Z,99416.09
2018-10-05T06:22:58.305Z,99418.20
2018-10-05T06:26:04.004Z,99412.02
2018-10-05T06:29:11.294Z,99416.16
2018-10-05T06:32:17.553Z,99419.57
2018-10-05T06:35:22.612Z,99408.08
2018-10-05T06:38:29.006Z,99408.06
2018-10-05T06:41:34.064Z,99405.95
2018-10-05T06:44:41.616Z,99402.62
2018-10-05T06:47:47.913Z,99410.17
2018-10-05T06:50:55.705Z,99409.69
2018-10-05T06:54:02.236Z,99407.75
2018-10-05T06:57:07.440Z,99411.80
2018-10-05T07:00:13.141Z,99409.13
2018-10-05T07:03:18.222Z,99402.84
2018-10-05T07:06:23.303Z,99406.27
2018-10-05T07:09:28.264Z,99403.13
2018-10-05T07:12:33.285Z,99401.82
2018-10-05T07:15:39.013Z,99398.45
2018-10-05T07:18:44.734Z,99396.42
2018-10-05T07:21:49.730Z,99388.16
2018-10-05T07:24:54.713Z,99385.34
2018-10-05T07:28:00.632Z,99387.42
2018-10-05T07:31:06.211Z,99387.09
2018-10-05T07:34:12.975Z,99385.39
2018-10-05T07:37:18.856Z,99386.10
2018-10-05T07:40:25.611Z,99382.92
2018-10-05T07:43:32.418Z,99374.52
2018-10-05T07:46:38.574Z,99375.27
2018-10-05T07:49:44.635Z,99368.09
2018-10-05T07:52:49.681Z,99373.88
2018-10-05T07:55:55.802Z,99372.49
2018-10-05T07:59:03.014Z,99370.63
2018-10-05T08:02:11.339Z,99364.41
2018-10-05T08:05:19.292Z,99355.62
2018-10-05T08:08:25.988Z,99364.19
2018-10-05T08:11:33.804Z,99360.67
2018-10-05T08:14:38.825Z,99358.13
2018-10-05T08:17:45.623Z,99346.92
2018-10-05T08:20:53.734Z,99343.91
2018-10-05T08:24:00.049Z,99334.66
2018-10-05T08:27:07.219Z,99341.37
2018-10-05T08:30:12.226Z,99346.72
2018-10-05T08:33:19.730Z,99340.72
2018-10-05T08:36:25.585Z,99340.72
2018-10-05T08:39:30.609Z,99328.77
2018-10-05T08:42:35.777Z,99318.66
2018-10-05T08:45:41.999Z,99313.76
2018-10-05T08:48:49.040Z,99312.16
2018-10-05T08:51:54.163Z,99301.69
2018-10-05T08:54:59.813Z,99302.72
2018-10-05T08:58:07.228Z,99295.36
2018-10-05T09:01:13.242Z,99286.59
2018-10-05T09:04:19.610Z,99284.12
2018-10-05T09:07:26.942Z,99285.30
2018-10-05T09:10:33.933Z,99272.72
2018-10-05T09:13:38.974Z,99272.40
2018-10-05T09:16:43.988Z,99261.81
2018-10-05T09:19:48.981Z,99261.05
2018-10-05T09:22:53.993Z,99255.13
2018-10-05T09:25:59.020Z,99247.81
2018-10-05T09:29:04.750Z,99237.27
2018-10-05T09:32:09.892Z,99239.98
2018-10-05T09:35:16.860Z,99238.08
2018-10-05T09:38:21.902Z,99228.55
2018-10-05T09:41:26.866Z,99226.98
2018-10-05T09:44:33.659Z,99222.25
2018-10-05T09:47:38.722Z,99217.69
2018-10-05T09:50:44.291Z,99216.55
2018-10-05T09:53:50.331Z,99209.23
2018-10-05T09:56:57.341Z,99197.70
2018-10-05T10:00:02.457Z,99190.23
2018-10-05T10:03:13.939Z,99183.44
2018-10-05T10:06:19.287Z,99181.67
2018-10-05T10:09:25.222Z,99188.41
2018-10-05T10:12:30.210Z,99175.52
2018-10-05T10:15:36.133Z,99169.07
2018-10-05T10:18:43.651Z,99180.63
2018-10-05T10:21:48.653Z,99169.25
2018-10-05T10:24:56.056Z,99169.58
2018-10-05T10:28:02.283Z,99162.31
2018-10-05T10:31:08.018Z,99156.16
2018-10-05T10:34:14.296Z,99149.42
2018-10-05T10:37:19.727Z,99153.16
2018-10-05T10:40:25.806Z,99153.77
2018-10-05T10:43:32.079Z,99148.15
2018-10-05T10:46:37.085Z,99148.95
2018-10-05T10:49:42.320Z,99145.00
2018-10-05T10:52:47.311Z,99140.05
2018-10-05T10:55:56.550Z,99131.78
2018-10-05T10:59:03.504Z,99126.86
2018-10-05T11:02:10.223Z,99113.16
2018-10-05T11:05:16.306Z,99108.84
2018-10-05T11:08:25.074Z,99107.17
2018-10-05T11:11:31.037Z,99096.77
2018-10-05T11:14:39.162Z,99101.52
2018-10-05T11:17:44.189Z,99099.98
2018-10-05T11:20:51.182Z,99099.22
2018-10-05T11:23:56.237Z,99082.34
2018-10-05T11:27:03.498Z,99083.00
2018-10-05T11:30:09.649Z,99071.45
2018-10-05T11:33:15.289Z,99063.64
2018-10-05T11:36:20.352Z,99060.59
2018-10-05T11:39:27.837Z,99064.36
2018-10-05T11:42:32.854Z,99051.46
2018-10-05T11:45:42.989Z,99056.61
2018-10-05T11:48:49.501Z,99044.48
2018-10-05T11:51:55.516Z,99046.30
2018-10-05T11:55:01.510Z,99033.20
2018-10-05T11:58:07.159Z,99026.08
2018-10-05T12:01:12.643Z,99014.53
2018-10-05T12:04:18.817Z,99018.34
2018-10-05T12:07:23.977Z,99009.47
2018-10-05T12:10:28.989Z,99007.62
2018-10-05T12:14:54.029Z,99009.53
2018-10-05T12:17:59.013Z,99005.34
2018-10-05T12:21:05.115Z,98990.06
2018-10-05T12:24:11.683Z,98982.83
2018-10-05T12:27:18.317Z,98982.20
2018-10-05T12:30:24.160Z,98981.79
2018-10-05T12:33:29.843Z,98979.36
2018-10-05T12:36:36.271Z,98978.72
2018-10-05T12:39:42.115Z,98975.59
2018-10-05T12:42:47.187Z,98978.72
2018-10-05T12:45:53.166Z,98970.86
2018-10-05T12:48:59.917Z,98976.83
2018-10-05T12:52:08.782Z,98964.37
2018-10-05T12:55:16.323Z,98955.01
2018-10-05T12:58:21.610Z,98959.42
2018-10-05T13:01:27.512Z,98951.08
2018-10-05T13:04:32.613Z,98942.30
2018-10-05T13:07:37.633Z,98939.30
2018-10-05T13:10:44.845Z,98926.97
2018-10-05T13:13:50.369Z,98931.27
2018-10-05T13:16:55.724Z,98928.16
2018-10-05T13:20:03.895Z,98926.94
2018-10-05T13:23:09.096Z,98926.37
2018-10-05T13:26:15.112Z,98927.76
2018-10-05T13:29:20.201Z,98927.71
2018-10-05T13:32:26.261Z,98926.44
2018-10-05T13:35:31.285Z,98922.12
2018-10-05T13:38:36.292Z,98917.59
2018-10-05T13:41:41.321Z,98911.30
2018-10-05T13:44:47.344Z,98902.11
2018-10-05T13:47:53.356Z,98898.81
2018-10-05T13:50:58.412Z,98889.64
2018-10-05T13:54:03.889Z,98890.77
2018-10-05T13:57:08.901Z,98888.10
2018-10-05T14:00:14.591Z,98885.42
2018-10-05T14:03:20.569Z,98878.80
2018-10-05T14:06:25.607Z,98867.34
2018-10-05T14:09:31.782Z,98867.33
2018-10-05T14:12:36.869Z,98876.83
2018-10-05T14:15:43.855Z,98871.35
2018-10-05T14:18:52.507Z,98869.27
2018-10-05T14:21:59.637Z,98856.09
2018-10-05T14:25:04.663Z,98865.93
2018-10-05T14:28:11.021Z,98857.09
2018-10-05T14:31:16.094Z,98848.17
2018-10-05T14:34:21.186Z,98846.73
2018-10-05T14:37:26.225Z,98849.23
2018-10-05T14:40:34.439Z,98848.99
2018-10-05T14:43:43.511Z,98845.62
2018-10-05T14:46:49.621Z,98845.70
2018-10-05T14:49:54.777Z,98844.38
2018-10-05T14:53:00.846Z,98848.84
2018-10-05T14:56:07.435Z,98841.81
2018-10-05T14:59:12.537Z,98840.53
2018-10-05T15:02:19.433Z,98827.63
2018-10-05T15:05:25.545Z,98827.83
2018-10-05T15:08:31.709Z,98830.41
2018-10-05T15:11:38.861Z,98829.88
2018-10-05T15:14:43.944Z,98829.67
2018-10-05T15:17:50.102Z,98827.05
2018-10-05T15:20:55.872Z,98826.20
2018-10-05T15:24:00.946Z,98827.61
2018-10-05T15:27:07.857Z,98826.16
2018-10-05T15:30:14.022Z,98823.42
2018-10-05T15:33:19.086Z,98819.86
2018-10-05T15:36:25.199Z,98814.84
2018-10-05T15:39:30.237Z,98809.31
2018-10-05T15:42:35.335Z,98809.31
2018-10-05T15:45:41.292Z,98801.54
2018-10-05T15:48:47.633Z,98803.30
2018-10-05T15:51:53.382Z,98797.05
2018-10-05T15:54:59.174Z,98807.25
2018-10-05T15:58:04.908Z,98796.34
2018-10-05T16:01:10.036Z,98787.59
2018-10-05T16:04:16.416Z,98790.56
2018-10-05T16:07:22.123Z,98787.52
2018-10-05T16:10:29.093Z,98792.38
2018-10-05T16:13:34.763Z,98791.44
2018-10-05T16:16:41.563Z,98795.77
2018-10-05T16:19:46.661Z,98794.05
2018-10-05T16:22:51.662Z,98787.56
2018-10-05T16:26:01.411Z,98796.48
2018-10-05T16:29:09.288Z,98788.02
2018-10-05T16:32:16.962Z,98792.61
2018-10-05T16:35:22.127Z,98788.48
2018-10-05T16:38:27.576Z,98784.05
2018-10-05T16:41:32.582Z,98773.82
2018-10-05T16:44:38.628Z,98775.19
2018-10-05T16:47:45.681Z,98774.32
2018-10-05T16:50:53.325Z,98783.44
2018-10-05T16:54:00.755Z,98785.05
2018-10-05T16:57:10.982Z,98778.11
2018-10-05T17:00:16.047Z,98779.78
2018-10-05T17:03:24.204Z,98778.84
2018-10-05T17:06:29.487Z,98784.84
2018-10-05T17:09:36.921Z,98788.27
2018-10-05T17:12:44.259Z,98785.66
2018-10-05T17:15:49.290Z,98790.11
2018-10-05T17:18:54.417Z,98792.73
2018-10-05T17:22:00.527Z,98800.94
2018-10-05T17:25:07.964Z,98794.31
2018-10-05T17:28:14.469Z,98803.58
2018-10-05T17:31:20.665Z,98796.39
2018-10-05T17:34:25.778Z,98797.40
2018-10-05T17:37:36.765Z,98790.75
2018-10-05T17:40:41.837Z,98781.30
2018-10-05T17:43:46.922Z,98786.75
2018-10-05T17:46:53.081Z,98789.09
2018-10-05T17:49:58.211Z,98788.64
2018-10-05T17:53:04.141Z,98792.44
2018-10-05T17:56:12.184Z,98792.17
2018-10-05T17:59:18.045Z,98788.86
2018-10-05T18:02:24.355Z,98787.30
2018-10-05T18:05:31.613Z,98789.20
2018-10-05T18:08:37.915Z,98784.09
2018-10-05T18:11:45.775Z,98791.27
2018-10-05T18:14:51.482Z,98791.38
2018-10-05T18:18:00.479Z,98788.20
2018-10-05T18:21:06.916Z,98783.83
2018-10-05T18:24:13.206Z,98788.91
2018-10-05T18:27:19.817Z,98787.47
2018-10-05T18:30:30.920Z,98790.34
2018-10-05T18:33:37.616Z,98788.83
2018-10-05T18:36:46.539Z,98784.88
2018-10-05T18:40:08.345Z,98787.63
2018-10-05T18:43:15.214Z,98787.70
2018-10-05T18:46:21.508Z,98787.31
2018-10-05T18:49:27.553Z,98790.36
2018-10-05T18:52:33.436Z,98786.87
2018-10-05T18:55:39.885Z,98781.98
2018-10-05T18:58:45.120Z,98788.71
2018-10-05T19:01:51.205Z,98786.88
2018-10-05T19:04:57.039Z,98783.19
2018-10-05T19:08:02.922Z,98783.55
2018-10-05T19:11:08.292Z,98785.00
2018-10-05T19:14:14.462Z,98790.72
2018-10-05T19:17:20.249Z,98789.42
2018-10-05T19:20:26.536Z,98790.67
2018-10-05T19:26:49.021Z,98779.38
2018-10-05T19:29:56.153Z,98782.03
2018-10-05T19:33:02.378Z,98781.06
2018-10-05T19:36:09.728Z,98777.28
2018-10-05T19:39:15.092Z,98783.29
2018-10-05T19:42:26.875Z,98788.47
2018-10-05T19:45:33.186Z,98785.36
2018-10-05T19:48:38.930Z,98784.81
2018-10-05T19:51:54.516Z,98782.80
2018-10-05T19:54:59.562Z,98782.59
2018-10-05T19:58:04.925Z,98785.86
2018-10-05T20:01:10.053Z,98780.11
2018-10-05T20:04:15.185Z,98781.67
2018-10-05T20:07:21.017Z,98774.55
2018-10-05T20:10:26.688Z,98778.68
2018-10-05T20:13:34.384Z,98775.86
2018-10-05T20:16:39.378Z,98776.05
2018-10-05T20:19:45.565Z,98776.59
2018-10-05T20:22:51.222Z,98774.63
2018-10-05T20:25:57.010Z,98779.01
2018-10-05T20:29:03.743Z,98771.23
2018-10-05T20:32:10.611Z,98777.41
2018-10-05T20:35:29.752Z,98771.04
2018-10-05T20:38:40.244Z,98775.95
2018-10-05T20:41:49.219Z,98774.20
2018-10-05T20:48:55.087Z,98771.89
2018-10-05T20:56:38.484Z,98765.59
2018-10-05T20:59:44.210Z,98765.99
2018-10-05T21:02:58.136Z,98768.56
2018-10-05T21:06:15.855Z,98763.82
2018-10-05T21:09:33.858Z,98759.84
2018-10-05T21:14:58.467Z,98764.09
2018-10-05T21:18:04.173Z,98765.38
2018-10-05T21:21:09.847Z,98759.45
2018-10-05T21:24:15.354Z,98759.45
2018-10-05T21:27:21.239Z,98762.55
2018-10-05T21:30:26.240Z,98757.55
2018-10-05T21:33:33.595Z,98761.80
2018-10-05T21:36:38.602Z,98763.61
2018-10-05T21:39:43.739Z,98757.73
2018-10-05T21:42:48.800Z,98756.09
2018-10-05T21:45:54.935Z,98754.68
2018-10-05T21:49:01.089Z,98752.65
2018-10-05T21:52:06.886Z,98752.42
2018-10-05T21:55:14.012Z,98751.89
2018-10-05T21:58:19.365Z,98744.77
2018-10-05T22:01:32.453Z,98738.72
2018-10-05T22:04:38.278Z,98740.66
2018-10-05T22:07:44.414Z,98741.72
2018-10-05T22:10:50.890Z,98739.94
2018-10-05T22:13:56.839Z,98738.00
2018-10-05T22:17:03.657Z,98739.72
2018-10-05T22:20:09.535Z,98735.25
2018-10-05T22:23:15.509Z,98737.20
2018-10-05T22:26:21.489Z,98730.56
2018-10-05T22:29:27.285Z,98732.86
2018-10-05T22:32:33.448Z,98726.98
2018-10-05T22:35:39.602Z,98735.19
2018-10-05T22:38:45.759Z,98732.40
2018-10-05T22:41:51.495Z,98728.82
2018-10-05T22:44:58.585Z,98732.04
2018-10-05T22:48:03.571Z,98722.41
2018-10-05T22:51:09.339Z,98724.74
2018-10-05T22:54:14.965Z,98720.67
2018-10-05T22:57:19.961Z,98725.83
2018-10-05T23:00:26.601Z,98719.94
2018-10-05T23:03:32.868Z,98724.31
2018-10-05T23:06:40.400Z,98727.68
2018-10-05T23:09:45.502Z,98724.99
2018-10-05T23:12:51.325Z,98728.20
2018-10-05T23:15:56.400Z,98727.19
2018-10-05T23:19:02.618Z,98724.12
2018-10-05T23:22:08.456Z,98726.19
2018-10-05T23:25:14.095Z,98724.12
2018-10-05T23:28:19.105Z,98724.39
2018-10-05T23:31:26.054Z,98726.45
2018-10-05T23:34:31.058Z,98722.89
2018-10-05T23:37:37.812Z,98727.11
2018-10-05T23:40:43.623Z,98726.47
2018-10-05T23:43:49.436Z,98725.97
2018-10-05T23:46:54.420Z,98715.23
2018-10-05T23:50:01.091Z,98719.32
2018-10-05T23:53:07.118Z,98718.83
2018-10-05T23:56:12.478Z,98715.25
2018-10-05T23:59:17.478Z,98713.22
